Terminal Aerodrome Forecast
Issued by NWS Boston, MA

Home | Current Version | Previous Version | Text Only | Print | Product List | Glossary On
Versions: 1 2 3 4 5 6 7 8 9 10 11 12 13 14 15 16 17 18 19 20 21 22 23 24 25 26 27 28 29 30 31 32 33 34 35 36 37 38 39 40 41 42 43
000
FTUS41 KBOX 260536
TAFBDL
TAF
KBDL 260536Z 2606/2712 VRB03KT P6SM BKN190
     FM261100 35004KT P6SM -RA OVC090
     FM261500 01006KT 3SM -RASN OVC010
     FM261800 02008KT 1/2SM SN OVC008
     FM270000 01012G24KT 1SM -SN OVC010
     FM270300 35011G19KT P6SM OVC020
     FM270700 33009KT P6SM OVC035=

USA.gov is the U.S. government's official web portal to all federal, state and local government web resources and services.